sensor_id;sensor_type;location;lat;lon;timestamp;pressure;altitude;pressure_sealevel;temperature;humidity
83191;BME280;73087;49.924;22.080;2024-03-07T00:00:49;99328.91;;;5.95;78.23
83191;BME280;73087;49.924;22.080;2024-03-07T00:01:50;99323.69;;;5.95;78.67
83191;BME280;73087;49.924;22.080;2024-03-07T00:02:51;99304.66;;;5.79;78.23
83191;BME280;73087;49.924;22.080;2024-03-07T00:03:51;99320.34;;;5.93;77.57
83191;BME280;73087;49.924;22.080;2024-03-07T00:04:52;99325.38;;;5.96;78.67
83191;BME280;73087;49.924;22.080;2024-03-07T00:05:52;99327.03;;;5.97;78.25
83191;BME280;73087;49.924;22.080;2024-03-07T00:06:53;99316.44;;;6.00;78.04
83191;BME280;73087;49.924;22.080;2024-03-07T00:07:54;99319.88;;;6.00;78.34
83191;BME280;73087;49.924;22.080;2024-03-07T00:08:55;99320.72;;;6.01;77.46
83191;BME280;73087;49.924;22.080;2024-03-07T00:09:55;99321.47;;;6.03;78.17
83191;BME280;73087;49.924;22.080;2024-03-07T00:10:57;99323.50;;;5.98;77.13
83191;BME280;73087;49.924;22.080;2024-03-07T00:11:58;99322.00;;;5.94;77.86
83191;BME280;73087;49.924;22.080;2024-03-07T00:12:58;99322.00;;;5.94;78.12
83191;BME280;73087;49.924;22.080;2024-03-07T00:13:59;99318.47;;;5.95;78.21
83191;BME280;73087;49.924;22.080;2024-03-07T00:14:59;99310.72;;;5.93;77.35
83191;BME280;73087;49.924;22.080;2024-03-07T00:16:00;99319.41;;;5.94;77.76
83191;BME280;73087;49.924;22.080;2024-03-07T00:17:01;99313.06;;;5.98;77.84
83191;BME280;73087;49.924;22.080;2024-03-07T00:18:02;99318.28;;;5.98;78.31
83191;BME280;73087;49.924;22.080;2024-03-07T00:19:02;99310.06;;;5.90;77.39
83191;BME280;73087;49.924;22.080;2024-03-07T00:20:03;99317.31;;;5.85;77.86
83191;BME280;73087;49.924;22.080;2024-03-07T00:21:04;99306.06;;;5.84;77.71
83191;BME280;73087;49.924;22.080;2024-03-07T00:22:04;99315.63;;;5.84;77.72
83191;BME280;73087;49.924;22.080;2024-03-07T00:23:05;99306.88;;;5.85;78.27
83191;BME280;73087;49.924;22.080;2024-03-07T00:24:05;99319.91;;;5.85;78.30
83191;BME280;73087;49.924;22.080;2024-03-07T00:25:06;99313.78;;;5.86;78.07
83191;BME280;73087;49.924;22.080;2024-03-07T00:26:08;99312.09;;;5.85;77.32
83191;BME280;73087;49.924;22.080;2024-03-07T00:27:08;99317.31;;;5.85;77.65
83191;BME280;73087;49.924;22.080;2024-03-07T00:28:09;99308.56;;;5.86;77.29
83191;BME280;73087;49.924;22.080;2024-03-07T00:29:09;99307.25;;;5.79;77.35
83191;BME280;73087;49.924;22.080;2024-03-07T00:30:10;99312.47;;;5.79;76.96
83191;BME280;73087;49.924;22.080;2024-03-07T00:31:11;99321.19;;;5.78;78.22
83191;BME280;73087;49.924;22.080;2024-03-07T00:32:11;99315.81;;;5.81;78.11
83191;BME280;73087;49.924;22.080;2024-03-07T00:33:12;99310.34;;;5.85;77.42
83191;BME280;73087;49.924;22.080;2024-03-07T00:34:12;99308.75;;;5.83;77.62
83191;BME280;73087;49.924;22.080;2024-03-07T00:35:13;99315.81;;;5.81;78.32
83191;BME280;73087;49.924;22.080;2024-03-07T00:36:13;99315.81;;;5.81;77.30
83191;BME280;73087;49.924;22.080;2024-03-07T00:37:14;99310.59;;;5.81;78.23
83191;BME280;73087;49.924;22.080;2024-03-07T00:38:15;99319.16;;;5.83;77.39
83191;BME280;73087;49.924;22.080;2024-03-07T00:39:15;99319.16;;;5.83;78.18
83191;BME280;73087;49.924;22.080;2024-03-07T00:40:16;99319.00;;;5.86;78.02
83191;BME280;73087;49.924;22.080;2024-03-07T00:41:18;99320.84;;;5.84;78.09
83191;BME280;73087;49.924;22.080;2024-03-07T00:42:18;99327.75;;;5.85;77.31
83191;BME280;73087;49.924;22.080;2024-03-07T00:43:19;99311.91;;;5.88;78.68
83191;BME280;73087;49.924;22.080;2024-03-07T00:44:19;99322.19;;;5.91;77.96
83191;BME280;73087;49.924;22.080;2024-03-07T00:45:21;99318.66;;;5.92;78.08
83191;BME280;73087;49.924;22.080;2024-03-07T00:46:22;99311.78;;;5.91;77.95
83191;BME280;73087;49.924;22.080;2024-03-07T00:47:22;99311.59;;;5.94;77.40
83191;BME280;73087;49.924;22.080;2024-03-07T00:48:22;99318.66;;;5.92;77.62
83191;BME280;73087;49.924;22.080;2024-03-07T00:49:23;99323.09;;;5.90;78.55
83191;BME280;73087;49.924;22.080;2024-03-07T00:50:23;99317.13;;;5.88;78.13
83191;BME280;73087;49.924;22.080;2024-03-07T00:51:24;99324.19;;;5.86;77.12
83191;BME280;73087;49.924;22.080;2024-03-07T00:52:24;99319.00;;;5.86;77.54
83191;BME280;73087;49.924;22.080;2024-03-07T00:53:25;99310.59;;;5.81;77.81
83191;BME280;73087;49.924;22.080;2024-03-07T00:54:25;99310.59;;;5.81;78.42
83191;BME280;73087;49.924;22.080;2024-03-07T00:55:26;99310.59;;;5.81;77.96
83191;BME280;73087;49.924;22.080;2024-03-07T00:56:28;99313.13;;;5.82;78.09
83191;BME280;73087;49.924;22.080;2024-03-07T00:57:28;99316.97;;;5.91;78.60
83191;BME280;73087;49.924;22.080;2024-03-07T00:58:29;99316.97;;;5.91;77.61
83191;BME280;73087;49.924;22.080;2024-03-07T00:59:29;99315.28;;;5.90;78.17
83191;BME280;73087;49.924;22.080;2024-03-07T01:00:30;99313.59;;;5.89;77.88
83191;BME280;73087;49.924;22.080;2024-03-07T01:01:30;99318.66;;;5.92;77.87
83191;BME280;73087;49.924;22.080;2024-03-07T01:02:30;99313.25;;;5.95;78.41
83191;BME280;73087;49.924;22.080;2024-03-07T01:03:31;99308.22;;;5.92;77.84
83191;BME280;73087;49.924;22.080;2024-03-07T01:04:31;99315.63;;;5.84;77.39
83191;BME280;73087;49.924;22.080;2024-03-07T01:05:32;99318.34;;;5.82;77.20
83191;BME280;73087;49.924;22.080;2024-03-07T01:06:32;99317.50;;;5.82;78.47
83191;BME280;73087;49.924;22.080;2024-03-07T01:07:33;99319.50;;;5.77;76.96
83191;BME280;73087;49.924;22.080;2024-03-07T01:08:33;99319.50;;;5.77;77.31
83191;BME280;73087;49.924;22.080;2024-03-07T01:09:34;99319.50;;;5.77;78.26
83191;BME280;73087;49.924;22.080;2024-03-07T01:10:34;99317.69;;;5.79;78.91
83191;BME280;73087;49.924;22.080;2024-03-07T01:11:36;99322.88;;;5.79;78.11
83191;BME280;73087;49.924;22.080;2024-03-07T01:12:37;99317.50;;;5.82;78.09
83191;BME280;73087;49.924;22.080;2024-03-07T01:13:38;99285.06;;;5.72;78.22
83191;BME280;73087;49.924;22.080;2024-03-07T01:14:38;99316.31;;;5.87;77.19
83191;BME280;73087;49.924;22.080;2024-03-07T01:15:39;99324.38;;;5.83;77.56
83191;BME280;73087;49.924;22.080;2024-03-07T01:16:39;99314.28;;;5.77;77.25
83191;BME280;73087;49.924;22.080;2024-03-07T01:17:40;99309.25;;;5.74;77.69
83191;BME280;73087;49.924;22.080;2024-03-07T01:18:40;99317.69;;;5.79;78.08
83191;BME280;73087;49.924;22.080;2024-03-07T01:19:40;99322.88;;;5.79;78.05
83191;BME280;73087;49.924;22.080;2024-03-07T01:20:41;99312.47;;;5.79;77.65
83191;BME280;73087;49.924;22.080;2024-03-07T01:21:41;99317.50;;;5.82;78.09
83191;BME280;73087;49.924;22.080;2024-03-07T01:22:42;99321.03;;;5.81;77.87
83191;BME280;73087;49.924;22.080;2024-03-07T01:23:42;99321.03;;;5.81;77.36
83191;BME280;73087;49.924;22.080;2024-03-07T01:24:43;99322.88;;;5.79;77.18
83191;BME280;73087;49.924;22.080;2024-03-07T01:25:43;99322.88;;;5.79;78.25
83191;BME280;73087;49.924;22.080;2024-03-07T01:26:45;99322.88;;;5.79;78.37
83191;BME280;73087;49.924;22.080;2024-03-07T01:27:46;99319.69;;;5.74;78.77
83191;BME280;73087;49.924;22.080;2024-03-07T01:28:46;99329.78;;;5.80;78.05
83191;BME280;73087;49.924;22.080;2024-03-07T01:29:46;99319.16;;;5.83;77.76
83191;BME280;73087;49.924;22.080;2024-03-07T01:30:47;99320.84;;;5.84;77.53
83191;BME280;73087;49.924;22.080;2024-03-07T01:31:47;99324.38;;;5.83;77.40
83191;BME280;73087;49.924;22.080;2024-03-07T01:32:48;99326.25;;;5.81;77.44
83191;BME280;73087;49.924;22.080;2024-03-07T01:33:48;99327.75;;;5.85;78.20
83191;BME280;73087;49.924;22.080;2024-03-07T01:34:49;99324.03;;;5.89;79.15
83191;BME280;73087;49.924;22.080;2024-03-07T01:35:49;99333.44;;;5.91;78.52
83191;BME280;73087;49.924;22.080;2024-03-07T01:36:50;99327.41;;;5.91;77.30
83191;BME280;73087;49.924;22.080;2024-03-07T01:37:50;99320.66;;;5.87;77.37
83191;BME280;73087;49.924;22.080;2024-03-07T01:38:51;99324.13;;;5.87;77.43
83191;BME280;73087;49.924;22.080;2024-03-07T01:39:51;99315.47;;;5.87;78.21
83191;BME280;73087;49.924;22.080;2024-03-07T01:40:52;99322.34;;;5.88;77.64
83191;BME280;73087;49.924;22.080;2024-03-07T01:41:54;99312.47;;;5.79;77.63
83191;BME280;73087;49.924;22.080;2024-03-07T01:42:54;99314.63;;;5.86;77.74
83191;BME280;73087;49.924;22.080;2024-03-07T01:43:55;99319.00;;;5.86;77.55
83191;BME280;73087;49.924;22.080;2024-03-07T01:44:55;99325.06;;;5.86;78.51
83191;BME280;73087;49.924;22.080;2024-03-07T01:45:56;99325.88;;;5.87;78.29
83191;BME280;73087;49.924;22.080;2024-03-07T01:46:58;99319.84;;;5.86;77.38
83191;BME280;73087;49.924;22.080;2024-03-07T01:47:59;99325.88;;;5.87;77.70
83191;BME280;73087;49.924;22.080;2024-03-07T01:49:00;99324.19;;;5.86;77.63
83191;BME280;73087;49.924;22.080;2024-03-07T01:50:00;99318.81;;;5.89;78.00
83191;BME280;73087;49.924;22.080;2024-03-07T01:51:01;99325.69;;;5.90;78.25
83191;BME280;73087;49.924;22.080;2024-03-07T01:52:03;99319.00;;;5.86;78.82
83191;BME280;73087;49.924;22.080;2024-03-07T01:53:04;99310.59;;;5.81;77.76
83191;BME280;73087;49.924;22.080;2024-03-07T01:54:07;99327.22;;;5.94;77.57
83191;BME280;73087;49.924;22.080;2024-03-07T01:55:09;99330.75;;;5.93;76.92
83191;BME280;73087;49.924;22.080;2024-03-07T01:56:10;99322.34;;;5.88;78.57
83191;BME280;73087;49.924;22.080;2024-03-07T01:57:12;99323.88;;;5.92;78.60
83191;BME280;73087;49.924;22.080;2024-03-07T01:58:13;99329.22;;;5.89;77.85
83191;BME280;73087;49.924;22.080;2024-03-07T01:59:18;99331.09;;;5.87;78.18
83191;BME280;73087;49.924;22.080;2024-03-07T02:00:19;99334.63;;;5.86;77.93
83191;BME280;73087;49.924;22.080;2024-03-07T02:01:19;99327.75;;;5.85;77.74
83191;BME280;73087;49.924;22.080;2024-03-07T02:02:20;99331.09;;;5.87;78.63
83191;BME280;73087;49.924;22.080;2024-03-07T02:03:20;99329.22;;;5.89;78.49
83191;BME280;73087;49.924;22.080;2024-03-07T02:04:21;99332.78;;;5.88;77.85
83191;BME280;73087;49.924;22.080;2024-03-07T02:05:21;99334.63;;;5.86;77.88
83191;BME280;73087;49.924;22.080;2024-03-07T02:06:23;99329.41;;;5.86;78.05
83191;BME280;73087;49.924;22.080;2024-03-07T02:07:23;99332.94;;;5.85;78.04
83191;BME280;73087;49.924;22.080;2024-03-07T02:08:24;99329.41;;;5.86;77.39
83191;BME280;73087;49.924;22.080;2024-03-07T02:09:24;99326.25;;;5.81;77.77
83191;BME280;73087;49.924;22.080;2024-03-07T02:10:25;99326.06;;;5.84;78.43
83191;BME280;73087;49.924;22.080;2024-03-07T02:11:25;99331.28;;;5.84;78.24
83191;BME280;73087;49.924;22.080;2024-03-07T02:12:28;99332.94;;;5.85;77.68
83191;BME280;73087;49.924;22.080;2024-03-07T02:13:29;99326.06;;;5.84;77.79
83191;BME280;73087;49.924;22.080;2024-03-07T02:14:29;99302.56;;;5.70;78.25
83191;BME280;73087;49.924;22.080;2024-03-07T02:15:30;99319.16;;;5.83;77.71
83191;BME280;73087;49.924;22.080;2024-03-07T02:16:30;99327.91;;;5.82;77.81
83191;BME280;73087;49.924;22.080;2024-03-07T02:17:31;99329.59;;;5.83;77.81
83191;BME280;73087;49.924;22.080;2024-03-07T02:18:32;99334.81;;;5.83;77.33
83191;BME280;73087;49.924;22.080;2024-03-07T02:19:33;99322.53;;;5.85;78.00
83191;BME280;73087;49.924;22.080;2024-03-07T02:20:34;99323.38;;;5.85;77.60
83191;BME280;73087;49.924;22.080;2024-03-07T02:21:35;99327.75;;;5.85;77.49
83191;BME280;73087;49.924;22.080;2024-03-07T02:22:36;99330.44;;;5.83;77.63
83191;BME280;73087;49.924;22.080;2024-03-07T02:23:37;99319.34;;;5.80;78.03
83191;BME280;73087;49.924;22.080;2024-03-07T02:24:37;99327.09;;;5.81;76.89
83191;BME280;73087;49.924;22.080;2024-03-07T02:25:38;99326.25;;;5.81;77.55
83191;BME280;73087;49.924;22.080;2024-03-07T02:26:38;99324.56;;;5.80;77.73
83191;BME280;73087;49.924;22.080;2024-03-07T02:27:39;99319.16;;;5.83;77.82
83191;BME280;73087;49.924;22.080;2024-03-07T02:28:39;99324.38;;;5.83;77.57
83191;BME280;73087;49.924;22.080;2024-03-07T02:29:40;99296.03;;;5.63;78.16
83191;BME280;73087;49.924;22.080;2024-03-07T02:30:40;99322.72;;;5.82;78.30
83191;BME280;73087;49.924;22.080;2024-03-07T02:31:40;99322.88;;;5.79;77.12
83191;BME280;73087;49.924;22.080;2024-03-07T02:32:41;99314.28;;;5.77;77.11
83191;BME280;73087;49.924;22.080;2024-03-07T02:33:41;99323.03;;;5.76;77.86
83191;BME280;73087;49.924;22.080;2024-03-07T02:34:42;99321.53;;;5.72;77.78
83191;BME280;73087;49.924;22.080;2024-03-07T02:35:42;99326.56;;;5.75;77.88
83191;BME280;73087;49.924;22.080;2024-03-07T02:36:44;99320.44;;;5.76;78.07
83191;BME280;73087;49.924;22.080;2024-03-07T02:37:45;99301.06;;;5.66;77.16
83191;BME280;73087;49.924;22.080;2024-03-07T02:38:45;99317.69;;;5.79;77.98
83191;BME280;73087;49.924;22.080;2024-03-07T02:39:46;99319.50;;;5.77;77.95
83191;BME280;73087;49.924;22.080;2024-03-07T02:40:46;99326.56;;;5.75;78.35
83191;BME280;73087;49.924;22.080;2024-03-07T02:41:47;99326.56;;;5.75;78.22
83191;BME280;73087;49.924;22.080;2024-03-07T02:42:47;99326.56;;;5.75;78.69
83191;BME280;73087;49.924;22.080;2024-03-07T02:43:47;99326.56;;;5.75;77.67
83191;BME280;73087;49.924;22.080;2024-03-07T02:44:48;99319.88;;;5.71;77.71
83191;BME280;73087;49.924;22.080;2024-03-07T02:45:48;99318.38;;;5.67;77.15
83191;BME280;73087;49.924;22.080;2024-03-07T02:46:49;99326.00;;;5.70;77.98
83191;BME280;73087;49.924;22.080;2024-03-07T02:47:49;99321.72;;;5.69;77.15
83191;BME280;73087;49.924;22.080;2024-03-07T02:48:50;99323.41;;;5.70;77.35
83191;BME280;73087;49.924;22.080;2024-03-07T02:49:50;99325.06;;;5.71;78.27
83191;BME280;73087;49.924;22.080;2024-03-07T02:50:51;99328.59;;;5.70;78.11
83191;BME280;73087;49.924;22.080;2024-03-07T02:51:52;99323.22;;;5.73;78.64
83191;BME280;73087;49.924;22.080;2024-03-07T02:52:53;99319.88;;;5.71;77.73
83191;BME280;73087;49.924;22.080;2024-03-07T02:53:53;99322.38;;;5.72;77.14
83191;BME280;73087;49.924;22.080;2024-03-07T02:54:54;99321.53;;;5.72;77.23
83191;BME280;73087;49.924;22.080;2024-03-07T02:55:55;99318.00;;;5.73;78.15
83191;BME280;73087;49.924;22.080;2024-03-07T02:56:56;99320.03;;;5.68;77.16
83191;BME280;73087;49.924;22.080;2024-03-07T02:57:56;99316.88;;;5.63;77.64
83191;BME280;73087;49.924;22.080;2024-03-07T02:58:57;99320.41;;;5.62;77.62
83191;BME280;73087;49.924;22.080;2024-03-07T02:59:57;99321.09;;;5.50;78.18
83191;BME280;73087;49.924;22.080;2024-03-07T03:00:58;99325.78;;;5.59;78.34
83191;BME280;73087;49.924;22.080;2024-03-07T03:01:59;99325.63;;;5.62;77.25
83191;BME280;73087;49.924;22.080;2024-03-07T03:02:59;99327.28;;;5.63;78.47
83191;BME280;73087;49.924;22.080;2024-03-07T03:04:00;99329.16;;;5.61;78.10
83191;BME280;73087;49.924;22.080;2024-03-07T03:05:00;99322.25;;;5.60;77.84
83191;BME280;73087;49.924;22.080;2024-03-07T03:06:01;99327.47;;;5.60;78.27
83191;BME280;73087;49.924;22.080;2024-03-07T03:07:03;99322.41;;;5.57;78.16
83191;BME280;73087;49.924;22.080;2024-03-07T03:08:04;99327.13;;;5.66;77.98
83191;BME280;73087;49.924;22.080;2024-03-07T03:09:04;99322.06;;;5.63;77.80
83191;BME280;73087;49.924;22.080;2024-03-07T03:10:06;99314.84;;;5.68;78.50
83191;BME280;73087;49.924;22.080;2024-03-07T03:11:07;99330.66;;;5.65;78.41
83191;BME280;73087;49.924;22.080;2024-03-07T03:12:08;99323.94;;;5.61;77.21
83191;BME280;73087;49.924;22.080;2024-03-07T03:13:08;99326.78;;;5.56;77.19
83191;BME280;73087;49.924;22.080;2024-03-07T03:14:09;99327.78;;;5.54;77.85
83191;BME280;73087;49.924;22.080;2024-03-07T03:15:09;99329.66;;;5.52;77.25
83191;BME280;73087;49.924;22.080;2024-03-07T03:16:10;99331.31;;;5.53;78.42
83191;BME280;73087;49.924;22.080;2024-03-07T03:17:10;99318.59;;;5.48;77.96
83191;BME280;73087;49.924;22.080;2024-03-07T03:18:10;99324.25;;;5.55;77.92
83191;BME280;73087;49.924;22.080;2024-03-07T03:19:11;99327.97;;;5.51;77.49
83191;BME280;73087;49.924;22.080;2024-03-07T03:20:12;99329.81;;;5.49;77.71
83191;BME280;73087;49.924;22.080;2024-03-07T03:21:12;99338.22;;;5.54;77.69
83191;BME280;73087;49.924;22.080;2024-03-07T03:22:14;99336.34;;;5.56;77.00
83191;BME280;73087;49.924;22.080;2024-03-07T03:23:14;99279.31;;;5.22;77.98
83191;BME280;73087;49.924;22.080;2024-03-07T03:24:15;99340.06;;;5.52;77.22
83191;BME280;73087;49.924;22.080;2024-03-07T03:25:16;99341.91;;;5.50;77.82
83191;BME280;73087;49.924;22.080;2024-03-07T03:26:16;99329.66;;;5.52;77.73
83191;BME280;73087;49.924;22.080;2024-03-07T03:27:16;99341.75;;;5.53;78.21
83191;BME280;73087;49.924;22.080;2024-03-07T03:28:17;99330.00;;;5.46;77.45
83191;BME280;73087;49.924;22.080;2024-03-07T03:29:17;99346.38;;;5.48;77.24
83191;BME280;73087;49.924;22.080;2024-03-07T03:30:18;99332.44;;;5.49;77.80
83191;BME280;73087;49.924;22.080;2024-03-07T03:31:18;99340.25;;;5.49;77.85
83191;BME280;73087;49.924;22.080;2024-03-07T03:32:19;99343.59;;;5.51;77.74
83191;BME280;73087;49.924;22.080;2024-03-07T03:33:20;99314.06;;;5.36;78.17
83191;BME280;73087;49.924;22.080;2024-03-07T03:34:20;99341.91;;;5.50;78.24
83191;BME280;73087;49.924;22.080;2024-03-07T03:35:21;99338.22;;;5.54;76.78
83191;BME280;73087;49.924;22.080;2024-03-07T03:36:21;99339.88;;;5.55;77.50
83191;BME280;73087;49.924;22.080;2024-03-07T03:37:23;99340.81;;;5.54;77.04
83191;BME280;73087;49.924;22.080;2024-03-07T03:38:23;99341.75;;;5.53;76.96
83191;BME280;73087;49.924;22.080;2024-03-07T03:39:24;99341.91;;;5.50;77.37
83191;BME280;73087;49.924;22.080;2024-03-07T03:40:24;99339.41;;;5.48;77.04
83191;BME280;73087;49.924;22.080;2024-03-07T03:41:25;99340.41;;;5.46;78.27
83191;BME280;73087;49.924;22.080;2024-03-07T03:42:25;99347.31;;;5.47;77.94
83191;BME280;73087;49.924;22.080;2024-03-07T03:43:26;99346.38;;;5.48;77.32
83191;BME280;73087;49.924;22.080;2024-03-07T03:44:26;99343.78;;;5.48;77.65
83191;BME280;73087;49.924;22.080;2024-03-07T03:45:27;99340.59;;;5.43;77.55
83191;BME280;73087;49.924;22.080;2024-03-07T03:46:27;99347.66;;;5.41;76.92
83191;BME280;73087;49.924;22.080;2024-03-07T03:47:28;99342.63;;;5.38;76.80
83191;BME280;73087;49.924;22.080;2024-03-07T03:48:28;99351.19;;;5.40;78.21
83191;BME280;73087;49.924;22.080;2024-03-07T03:49:29;99341.44;;;5.43;77.08
83191;BME280;73087;49.924;22.080;2024-03-07T03:50:29;99344.31;;;5.39;78.08
83191;BME280;73087;49.924;22.080;2024-03-07T03:51:29;99342.63;;;5.38;78.05
83191;BME280;73087;49.924;22.080;2024-03-07T03:52:31;99344.31;;;5.39;77.14
83191;BME280;73087;49.924;22.080;2024-03-07T03:53:32;99346.16;;;5.37;77.57
83191;BME280;73087;49.924;22.080;2024-03-07T03:54:32;99344.66;;;5.33;77.86
83191;BME280;73087;49.924;22.080;2024-03-07T03:55:33;99344.66;;;5.33;77.02
83191;BME280;73087;49.924;22.080;2024-03-07T03:56:33;99344.66;;;5.33;76.99
83191;BME280;73087;49.924;22.080;2024-03-07T03:57:34;99343.16;;;5.29;77.35
83191;BME280;73087;49.924;22.080;2024-03-07T03:58:34;99342.41;;;5.27;77.99
83191;BME280;73087;49.924;22.080;2024-03-07T03:59:35;99346.69;;;5.28;78.27
83191;BME280;73087;49.924;22.080;2024-03-07T04:00:35;99341.28;;;5.31;78.32
83191;BME280;73087;49.924;22.080;2024-03-07T04:01:36;99341.13;;;5.34;78.42
83191;BME280;73087;49.924;22.080;2024-03-07T04:02:36;99332.88;;;5.26;78.10
83191;BME280;73087;49.924;22.080;2024-03-07T04:03:36;99341.28;;;5.31;78.46
83191;BME280;73087;49.924;22.080;2024-03-07T04:04:38;99344.66;;;5.33;77.16
83191;BME280;73087;49.924;22.080;2024-03-07T04:05:39;99339.44;;;5.33;77.17
83191;BME280;73087;49.924;22.080;2024-03-07T04:06:39;99343.16;;;5.29;77.46
83191;BME280;73087;49.924;22.080;2024-03-07T04:07:41;99345.75;;;5.29;78.07
83191;BME280;73087;49.924;22.080;2024-03-07T04:08:42;99343.28;;;5.26;77.57
83191;BME280;73087;49.924;22.080;2024-03-07T04:09:43;99350.34;;;5.24;77.13
83191;BME280;73087;49.924;22.080;2024-03-07T04:10:44;99349.53;;;5.23;77.62
83191;BME280;73087;49.924;22.080;2024-03-07T04:11:44;99352.19;;;5.22;77.37
83191;BME280;73087;49.924;22.080;2024-03-07T04:12:45;99350.53;;;5.21;77.62
83191;BME280;73087;49.924;22.080;2024-03-07T04:13:47;99352.19;;;5.22;77.15
83191;BME280;73087;49.924;22.080;2024-03-07T04:14:47;99345.31;;;5.21;77.00
83191;BME280;73087;49.924;22.080;2024-03-07T04:15:48;99357.41;;;5.22;76.92
83191;BME280;73087;49.924;22.080;2024-03-07T04:16:48;99352.19;;;5.22;77.70
83191;BME280;73087;49.924;22.080;2024-03-07T04:17:49;99355.41;;;5.27;76.66
83191;BME280;73087;49.924;22.080;2024-03-07T04:18:49;99357.22;;;5.25;76.71
83191;BME280;73087;49.924;22.080;2024-03-07T04:19:50;99349.53;;;5.23;77.51
83191;BME280;73087;49.924;22.080;2024-03-07T04:20:50;99363.38;;;5.24;77.72
83191;BME280;73087;49.924;22.080;2024-03-07T04:21:51;99340.47;;;5.15;77.42
83191;BME280;73087;49.924;22.080;2024-03-07T04:22:52;99364.28;;;5.23;76.89
83191;BME280;73087;49.924;22.080;2024-03-07T04:23:53;99355.41;;;5.27;77.16
83191;BME280;73087;49.924;22.080;2024-03-07T04:24:53;99352.19;;;5.22;77.13
83191;BME280;73087;49.924;22.080;2024-03-07T04:25:54;99348.84;;;5.20;76.21
83191;BME280;73087;49.924;22.080;2024-03-07T04:26:54;99359.25;;;5.20;76.21
83191;BME280;73087;49.924;22.080;2024-03-07T04:27:55;99361.28;;;5.15;76.42
83191;BME280;73087;49.924;22.080;2024-03-07T04:28:55;99361.44;;;5.12;76.56
83191;BME280;73087;49.924;22.080;2024-03-07T04:29:56;99361.44;;;5.12;76.47
83191;BME280;73087;49.924;22.080;2024-03-07T04:30:56;99359.94;;;5.08;76.77
83191;BME280;73087;49.924;22.080;2024-03-07T04:31:57;99360.13;;;5.05;76.88
83191;BME280;73087;49.924;22.080;2024-03-07T04:32:57;99360.13;;;5.05;76.91
83191;BME280;73087;49.924;22.080;2024-03-07T04:33:58;99361.97;;;5.03;76.98
83191;BME280;73087;49.924;22.080;2024-03-07T04:34:58;99362.97;;;5.00;77.24
83191;BME280;73087;49.924;22.080;2024-03-07T04:35:59;99350.69;;;5.02;77.70
83191;BME280;73087;49.924;22.080;2024-03-07T04:36:59;99360.28;;;5.02;77.26
83191;BME280;73087;49.924;22.080;2024-03-07T04:38:01;99370.88;;;4.99;77.00
83191;BME280;73087;49.924;22.080;2024-03-07T04:39:02;99321.88;;;4.74;76.58
83191;BME280;73087;49.924;22.080;2024-03-07T04:40:04;99364.16;;;4.95;77.95
83191;BME280;73087;49.924;22.080;2024-03-07T04:41:04;99365.81;;;4.96;78.06
83191;BME280;73087;49.924;22.080;2024-03-07T04:42:06;99370.09;;;4.97;77.23
83191;BME280;73087;49.924;22.080;2024-03-07T04:43:07;99367.50;;;4.97;77.74
83191;BME280;73087;49.924;22.080;2024-03-07T04:44:07;99369.19;;;4.98;77.06
83191;BME280;73087;49.924;22.080;2024-03-07T04:45:08;99360.44;;;4.99;77.61
83191;BME280;73087;49.924;22.080;2024-03-07T04:46:09;99343.47;;;4.92;77.42
83191;BME280;73087;49.924;22.080;2024-03-07T04:47:09;99367.00;;;5.06;77.66
83191;BME280;73087;49.924;22.080;2024-03-07T04:48:10;99372.03;;;5.09;76.70
83191;BME280;73087;49.924;22.080;2024-03-07T04:49:10;99367.75;;;5.08;76.64
83191;BME280;73087;49.924;22.080;2024-03-07T04:50:11;99376.91;;;5.15;76.35
83191;BME280;73087;49.924;22.080;2024-03-07T04:51:12;99368.16;;;5.16;75.93
83191;BME280;73087;49.924;22.080;2024-03-07T04:52:12;99368.34;;;5.13;77.22
83191;BME280;73087;49.924;22.080;2024-03-07T04:53:14;99370.34;;;5.08;76.65
83191;BME280;73087;49.924;22.080;2024-03-07T04:54:15;99373.72;;;5.10;76.22
83191;BME280;73087;49.924;22.080;2024-03-07T04:55:15;99374.81;;;5.06;76.44
83191;BME280;73087;49.924;22.080;2024-03-07T04:56:16;99378.91;;;5.10;77.32
83191;BME280;73087;49.924;22.080;2024-03-07T04:57:16;99376.25;;;5.11;76.75
83191;BME280;73087;49.924;22.080;2024-03-07T04:58:17;99382.09;;;5.15;76.27
83191;BME280;73087;49.924;22.080;2024-03-07T04:59:18;99382.09;;;5.15;76.95
83191;BME280;73087;49.924;22.080;2024-03-07T05:00:19;99380.25;;;5.17;76.15
83191;BME280;73087;49.924;22.080;2024-03-07T05:01:20;99376.72;;;5.18;77.13
83191;BME280;73087;49.924;22.080;2024-03-07T05:02:20;99382.09;;;5.15;76.28
83191;BME280;73087;49.924;22.080;2024-03-07T05:03:20;99380.44;;;5.14;76.73
83191;BME280;73087;49.924;22.080;2024-03-07T05:04:21;99377.16;;;5.10;76.32
83191;BME280;73087;49.924;22.080;2024-03-07T05:05:21;99380.75;;;5.08;75.90
83191;BME280;73087;49.924;22.080;2024-03-07T05:06:22;99384.47;;;5.04;77.21
83191;BME280;73087;49.924;22.080;2024-03-07T05:07:22;99375.56;;;5.08;75.75
83191;BME280;73087;49.924;22.080;2024-03-07T05:08:24;99385.97;;;5.08;75.85
83191;BME280;73087;49.924;22.080;2024-03-07T05:09:25;99384.63;;;5.01;75.18
83191;BME280;73087;49.924;22.080;2024-03-07T05:10:25;99387.56;;;4.95;75.48
83191;BME280;73087;49.924;22.080;2024-03-07T05:11:25;99392.16;;;4.90;77.11
83191;BME280;73087;49.924;22.080;2024-03-07T05:12:26;99392.31;;;4.87;76.86
83191;BME280;73087;49.924;22.080;2024-03-07T05:13:26;99397.53;;;4.87;76.31
83191;BME280;73087;49.924;22.080;2024-03-07T05:14:27;99394.84;;;4.88;76.23
83191;BME280;73087;49.924;22.080;2024-03-07T05:15:27;99400.88;;;4.89;77.14
83191;BME280;73087;49.924;22.080;2024-03-07T05:16:29;99392.16;;;4.90;76.67
83191;BME280;73087;49.924;22.080;2024-03-07T05:17:29;99398.88;;;4.94;76.36
83191;BME280;73087;49.924;22.080;2024-03-07T05:18:30;99399.56;;;4.97;76.39
83191;BME280;73087;49.924;22.080;2024-03-07T05:19:31;99396.13;;;4.97;76.92
83191;BME280;73087;49.924;22.080;2024-03-07T05:20:32;99395.50;;;4.92;76.38
83191;BME280;73087;49.924;22.080;2024-03-07T05:21:32;99402.56;;;4.90;76.82